Time;durP1;ratioP1;P1;durP2;ratioP2;P2;SDS_P1;SDS_P2;PMS_P1;PMS_P2;Temp;Humidity;BMP_temperature;BMP_pressure;BME280_temperature;BME280_humidity;BME280_pressure;Samples;Min_cycle;Max_cycle;Signal;HPM_P1;HPM_P2
2021/09/22 00:00:16;;;;;;;;;44.50;32.75;;;;;;;;5083446;28;45386;-85
2021/09/22 00:02:41;;;;;;;;;44.00;32.50;;;;;;;;5083376;28;45237;-86
2021/09/22 00:05:07;;;;;;;;;38.50;32.00;;;;;;;;5083232;28;45918;-86
2021/09/22 00:07:32;;;;;;;;;38.50;33.25;;;;;;;;5083223;28;45524;-86
2021/09/22 00:09:58;;;;;;;;;40.00;31.00;;;;;;;;5065302;28;45299;-86
2021/09/22 00:12:23;;;;;;;;;38.50;30.75;;;;;;;;5082629;28;45512;-86
2021/09/22 00:14:48;;;;;;;;;39.75;30.50;;;;;;;;5083235;28;45331;-86
2021/09/22 00:17:14;;;;;;;;;35.00;30.00;;;;;;;;5082903;28;45417;-86
2021/09/22 00:19:39;;;;;;;;;35.25;30.25;;;;;;;;5082628;28;45473;-86
2021/09/22 00:22:04;;;;;;;;;36.25;30.50;;;;;;;;5082453;28;45442;-85
2021/09/22 00:24:30;;;;;;;;;40.75;28.50;;;;;;;;5083916;28;46367;-86
2021/09/22 00:26:55;;;;;;;;;41.00;34.00;;;;;;;;5067758;28;45353;-85
2021/09/22 00:29:20;;;;;;;;;40.00;31.75;;;;;;;;5067459;28;45402;-86
2021/09/22 00:31:45;;;;;;;;;39.50;28.00;;;;;;;;5067423;28;45268;-86
2021/09/22 00:34:11;;;;;;;;;38.67;30.00;;;;;;;;5084440;28;46415;-86
2021/09/22 00:36:36;;;;;;;;;39.50;30.50;;;;;;;;5088994;28;45226;-85
2021/09/22 00:39:02;;;;;;;;;33.75;30.25;;;;;;;;5066990;28;45229;-86
2021/09/22 00:41:27;;;;;;;;;30.75;28.00;;;;;;;;5066817;28;45356;-84
2021/09/22 00:43:52;;;;;;;;;36.67;30.67;;;;;;;;5066572;28;48193;-84
2021/09/22 00:46:17;;;;;;;;;38.75;31.75;;;;;;;;5083040;28;45206;-84
2021/09/22 00:48:43;;;;;;;;;38.00;32.33;;;;;;;;5082884;28;45398;-84
2021/09/22 00:51:08;;;;;;;;;34.75;28.00;;;;;;;;5064395;28;45964;-84
2021/09/22 00:53:34;;;;;;;;;44.75;33.00;;;;;;;;5082736;28;45279;-84
2021/09/22 00:55:59;;;;;;;;;40.00;31.00;;;;;;;;5082077;28;45441;-84
2021/09/22 00:58:26;;;;;;;;;39.50;32.25;;;;;;;;5085471;28;45223;-84
2021/09/22 01:00:51;;;;;;;;;38.75;31.75;;;;;;;;5088336;28;45304;-84
2021/09/22 01:03:16;;;;;;;;;39.00;30.75;;;;;;;;5087412;28;45263;-84
2021/09/22 01:05:42;;;;;;;;;37.25;32.00;;;;;;;;5085620;28;45344;-84
2021/09/22 01:08:10;;;;;;;;;41.00;31.75;;;;;;;;5084295;28;45378;-84
2021/09/22 01:10:36;;;;;;;;;39.75;32.25;;;;;;;;5066521;28;45789;-84
2021/09/22 01:13:01;;;;;;;;;37.75;32.75;;;;;;;;5068438;28;47317;-84
2021/09/22 01:15:29;;;;;;;;;47.25;33.75;;;;;;;;5070071;28;45378;-84
2021/09/22 01:17:55;;;;;;;;;36.00;29.00;;;;;;;;5074238;28;44735;-84
2021/09/22 01:20:20;;;;;;;;;41.50;30.75;;;;;;;;5082019;27;45206;-84
2021/09/22 01:22:46;;;;;;;;;41.75;32.75;;;;;;;;5107518;27;45213;-84
2021/09/22 01:25:12;;;;;;;;;42.25;31.75;;;;;;;;5071205;28;45340;-84
2021/09/22 01:27:51;;;;;;;;;40.00;34.00;;;;;;;;5069003;28;45257;-84
2021/09/22 01:30:16;;;;;;;;;37.50;32.50;;;;;;;;5064811;28;45745;-85
2021/09/22 01:32:55;;;;;;;;;39.00;33.00;;;;;;;;5081005;28;45341;-85
2021/09/22 01:35:21;;;;;;;;;39.50;31.25;;;;;;;;5062764;28;45656;-85
2021/09/22 01:37:46;;;;;;;;;37.00;32.00;;;;;;;;5081330;28;45309;-85
2021/09/22 01:40:12;;;;;;;;;36.25;29.75;;;;;;;;5063129;28;45523;-84
2021/09/22 01:42:37;;;;;;;;;36.00;29.00;;;;;;;;5062532;28;47289;-84
2021/09/22 01:45:04;;;;;;;;;38.75;31.25;;;;;;;;5080887;28;45354;-85
2021/09/22 01:47:29;;;;;;;;;35.75;31.00;;;;;;;;5081156;28;45604;-85
2021/09/22 01:50:05;;;;;;;;;40.00;30.00;;;;;;;;5081082;28;45431;-85
2021/09/22 01:52:31;;;;;;;;;35.00;30.25;;;;;;;;5080484;28;45402;-84
2021/09/22 01:54:56;;;;;;;;;30.25;28.00;;;;;;;;5080649;28;45593;-85
2021/09/22 01:57:22;;;;;;;;;36.50;29.75;;;;;;;;5083693;28;45497;-85
2021/09/22 01:59:47;;;;;;;;;40.00;33.75;;;;;;;;5083606;28;45349;-84
2021/09/22 02:02:12;;;;;;;;;46.33;30.00;;;;;;;;5064327;28;46199;-85
2021/09/22 02:04:37;;;;;;;;;40.67;31.67;;;;;;;;5080701;28;45279;-84
2021/09/22 02:07:03;;;;;;;;;35.25;31.00;;;;;;;;5065962;28;45288;-85
2021/09/22 02:09:28;;;;;;;;;44.00;33.75;;;;;;;;5066367;28;45432;-84
2021/09/22 02:11:53;;;;;;;;;36.00;31.00;;;;;;;;5084579;28;45288;-85
2021/09/22 02:14:19;;;;;;;;;34.75;30.00;;;;;;;;5075863;28;45228;-84
2021/09/22 02:16:44;;;;;;;;;42.33;33.00;;;;;;;;5080516;28;45203;-84
2021/09/22 02:19:10;;;;;;;;;46.00;33.25;;;;;;;;5079818;28;45398;-85
2021/09/22 02:21:35;;;;;;;;;42.00;33.00;;;;;;;;5080052;28;45396;-85
2021/09/22 02:24:00;;;;;;;;;40.25;33.75;;;;;;;;5062012;28;45249;-85
2021/09/22 02:26:25;;;;;;;;;43.50;33.00;;;;;;;;5080748;28;45243;-85
2021/09/22 02:28:51;;;;;;;;;41.50;34.25;;;;;;;;5062397;28;45518;-85
2021/09/22 02:31:16;;;;;;;;;42.00;32.00;;;;;;;;5079987;28;46483;-84
2021/09/22 02:33:41;;;;;;;;;37.67;32.33;;;;;;;;5061603;28;46095;-85
2021/09/22 02:36:06;;;;;;;;;42.67;33.33;;;;;;;;5079738;28;45173;-84
2021/09/22 02:38:32;;;;;;;;;40.00;31.33;;;;;;;;5079798;28;45252;-84
2021/09/22 02:40:57;;;;;;;;;41.25;31.75;;;;;;;;5079392;28;45485;-85
2021/09/22 02:43:23;;;;;;;;;42.75;32.00;;;;;;;;5061696;28;45667;-85
2021/09/22 02:45:49;;;;;;;;;42.75;33.25;;;;;;;;5066666;28;45469;-84
2021/09/22 02:48:14;;;;;;;;;48.00;33.00;;;;;;;;5068915;28;45544;-84
2021/09/22 02:50:39;;;;;;;;;42.75;36.50;;;;;;;;5083819;28;45383;-84
2021/09/22 02:53:05;;;;;;;;;41.33;33.67;;;;;;;;5083423;28;45339;-85
2021/09/22 02:55:30;;;;;;;;;40.00;32.67;;;;;;;;5082816;28;45370;-84
2021/09/22 02:57:55;;;;;;;;;43.00;33.67;;;;;;;;5064637;28;45498;-84
2021/09/22 03:00:20;;;;;;;;;46.33;34.00;;;;;;;;5064419;28;47130;-84
2021/09/22 03:02:46;;;;;;;;;44.75;32.50;;;;;;;;5082886;28;45244;-85
2021/09/22 03:05:11;;;;;;;;;40.00;32.33;;;;;;;;5079597;28;45268;-84
2021/09/22 03:07:36;;;;;;;;;49.00;35.00;;;;;;;;5062465;28;45439;-84
2021/09/22 03:10:02;;;;;;;;;51.50;37.00;;;;;;;;5044321;28;45905;-84
2021/09/22 03:12:28;;;;;;;;;47.25;36.75;;;;;;;;5064747;28;45359;-85
2021/09/22 03:14:54;;;;;;;;;35.75;32.00;;;;;;;;5082768;28;45206;-84
2021/09/22 03:17:20;;;;;;;;;47.75;35.25;;;;;;;;5064329;28;45475;-84
2021/09/22 03:19:45;;;;;;;;;40.00;31.75;;;;;;;;5082228;28;45341;-84
2021/09/22 03:22:10;;;;;;;;;45.33;35.33;;;;;;;;5082560;28;45416;-85
2021/09/22 03:24:35;;;;;;;;;48.00;32.50;;;;;;;;5082750;28;45389;-85
2021/09/22 03:27:01;;;;;;;;;39.67;32.33;;;;;;;;5082646;28;45292;-84
2021/09/22 03:29:26;;;;;;;;;42.33;34.00;;;;;;;;5067071;28;45968;-85
2021/09/22 03:31:51;;;;;;;;;47.33;35.33;;;;;;;;5068392;28;45398;-85
2021/09/22 03:34:16;;;;;;;;;36.33;31.33;;;;;;;;5083413;28;45295;-85
2021/09/22 03:36:42;;;;;;;;;47.33;33.00;;;;;;;;5064239;28;45268;-85
2021/09/22 03:39:07;;;;;;;;;41.75;34.00;;;;;;;;5082303;28;45488;-85
2021/09/22 03:41:32;;;;;;;;;41.67;32.33;;;;;;;;5064278;28;45228;-85
2021/09/22 03:43:58;;;;;;;;;41.50;33.50;;;;;;;;5082360;28;45355;-85
2021/09/22 03:46:23;;;;;;;;;43.33;33.67;;;;;;;;5082437;28;45370;-85
2021/09/22 03:48:48;;;;;;;;;48.67;37.00;;;;;;;;5063721;28;47188;-85
2021/09/22 03:51:13;;;;;;;;;41.00;32.75;;;;;;;;5063713;28;45335;-85
2021/09/22 03:53:39;;;;;;;;;47.25;34.50;;;;;;;;5082096;28;45381;-85
2021/09/22 03:56:04;;;;;;;;;46.00;34.00;;;;;;;;5063014;28;45510;-85
2021/09/22 03:58:29;;;;;;;;;38.75;33.00;;;;;;;;5081369;28;46134;-85
2021/09/22 04:00:55;;;;;;;;;36.75;32.50;;;;;;;;5063721;28;45369;-85
2021/09/22 04:03:20;;;;;;;;;43.00;33.50;;;;;;;;5063777;28;45486;-85
2021/09/22 04:05:45;;;;;;;;;38.67;31.33;;;;;;;;5082087;28;45380;-85
2021/09/22 04:08:10;;;;;;;;;35.25;33.75;;;;;;;;5081999;28;46566;-85
2021/09/22 04:10:36;;;;;;;;;36.00;29.67;;;;;;;;5082067;28;45387;-85
2021/09/22 04:13:01;;;;;;;;;42.33;32.33;;;;;;;;5083765;28;45322;-85
2021/09/22 04:15:26;;;;;;;;;46.50;35.00;;;;;;;;5086008;28;45275;-85
2021/09/22 04:17:51;;;;;;;;;39.00;32.50;;;;;;;;5066143;28;45871;-85
2021/09/22 04:20:17;;;;;;;;;39.00;32.00;;;;;;;;5081864;28;45228;-85
2021/09/22 04:22:42;;;;;;;;;37.00;32.75;;;;;;;;5081877;28;45445;-85
2021/09/22 04:25:09;;;;;;;;;42.00;31.75;;;;;;;;5063472;28;45502;-85
2021/09/22 04:27:35;;;;;;;;;42.00;35.50;;;;;;;;5081351;28;45335;-85
2021/09/22 04:30:00;;;;;;;;;43.75;31.75;;;;;;;;5063247;28;45240;-85
2021/09/22 04:32:25;;;;;;;;;41.33;34.67;;;;;;;;5062650;28;45231;-85
2021/09/22 04:34:51;;;;;;;;;43.00;32.75;;;;;;;;5060826;28;45490;-85
2021/09/22 04:37:16;;;;;;;;;49.00;35.50;;;;;;;;5056389;28;47341;-85
2021/09/22 04:39:42;;;;;;;;;40.75;31.75;;;;;;;;5084258;27;45248;-84
2021/09/22 04:42:07;;;;;;;;;45.25;31.50;;;;;;;;5063340;28;45447;-85
2021/09/22 04:44:32;;;;;;;;;45.00;34.50;;;;;;;;5064171;28;45549;-85
2021/09/22 04:46:57;;;;;;;;;37.67;33.00;;;;;;;;5062059;28;47274;-85
2021/09/22 04:49:23;;;;;;;;;45.25;35.50;;;;;;;;5083123;28;45443;-85
2021/09/22 04:51:48;;;;;;;;;43.75;31.75;;;;;;;;5066518;28;45637;-85
2021/09/22 04:54:13;;;;;;;;;44.00;33.50;;;;;;;;5067415;28;45470;-85
2021/09/22 04:56:39;;;;;;;;;43.00;32.00;;;;;;;;5070270;27;46999;-85
2021/09/22 04:59:04;;;;;;;;;45.25;33.25;;;;;;;;5104856;27;45911;-86
2021/09/22 05:01:29;;;;;;;;;43.00;34.67;;;;;;;;5100386;27;45584;-85
2021/09/22 05:03:54;;;;;;;;;43.25;33.00;;;;;;;;5067812;28;45398;-85
2021/09/22 05:06:19;;;;;;;;;43.00;35.00;;;;;;;;5080461;28;46055;-85
2021/09/22 05:08:45;;;;;;;;;42.33;34.00;;;;;;;;5080972;28;45414;-85
2021/09/22 05:11:10;;;;;;;;;44.00;32.50;;;;;;;;5080934;28;45456;-85
2021/09/22 05:13:35;;;;;;;;;43.00;33.50;;;;;;;;5062236;28;45430;-85
2021/09/22 05:16:01;;;;;;;;;41.33;30.00;;;;;;;;5062148;28;47499;-84
2021/09/22 05:18:26;;;;;;;;;38.75;32.00;;;;;;;;5062233;28;45739;-85
2021/09/22 05:20:51;;;;;;;;;46.50;31.50;;;;;;;;5062360;28;45419;-87
2021/09/22 05:23:16;;;;;;;;;42.67;32.67;;;;;;;;5062273;28;45351;-84
2021/09/22 05:25:42;;;;;;;;;33.50;29.00;;;;;;;;5080630;28;45396;-86
2021/09/22 05:28:07;;;;;;;;;43.00;34.25;;;;;;;;5080634;28;45475;-85
2021/09/22 05:30:32;;;;;;;;;46.50;34.50;;;;;;;;5067446;27;45437;-85
2021/09/22 05:32:58;;;;;;;;;44.33;33.00;;;;;;;;5050331;28;45330;-85
2021/09/22 05:35:23;;;;;;;;;45.75;33.75;;;;;;;;5051925;28;45532;-85
2021/09/22 05:37:48;;;;;;;;;48.00;37.25;;;;;;;;5075543;28;45227;-84
2021/09/22 05:40:14;;;;;;;;;47.25;35.75;;;;;;;;5070951;28;45418;-84
2021/09/22 05:42:39;;;;;;;;;46.75;34.00;;;;;;;;5071972;28;45368;-84
2021/09/22 05:45:04;;;;;;;;;41.33;32.00;;;;;;;;5068500;28;46222;-84
2021/09/22 05:47:30;;;;;;;;;48.50;32.75;;;;;;;;5051992;28;45318;-83
2021/09/22 05:49:55;;;;;;;;;40.25;33.50;;;;;;;;5075717;28;45537;-83
2021/09/22 05:52:21;;;;;;;;;50.00;34.67;;;;;;;;5055468;27;45458;-83
2021/09/22 05:54:47;;;;;;;;;39.50;32.00;;;;;;;;5082299;27;45961;-83
2021/09/22 05:57:12;;;;;;;;;42.75;34.25;;;;;;;;5080494;27;45652;-83
2021/09/22 05:59:37;;;;;;;;;38.67;32.67;;;;;;;;5074974;27;45314;-84
2021/09/22 06:02:02;;;;;;;;;46.00;33.67;;;;;;;;5082473;27;45727;-84
2021/09/22 06:04:28;;;;;;;;;41.25;33.75;;;;;;;;5061721;27;45470;-84
2021/09/22 06:06:53;;;;;;;;;44.67;32.00;;;;;;;;5076572;27;46213;-84
2021/09/22 06:09:18;;;;;;;;;46.33;34.00;;;;;;;;5074535;27;45536;-83
2021/09/22 06:11:43;;;;;;;;;34.33;29.67;;;;;;;;5066610;27;45706;-82
2021/09/22 06:14:09;;;;;;;;;47.67;34.00;;;;;;;;5054810;28;48199;-84
2021/09/22 06:16:34;;;;;;;;;45.67;33.67;;;;;;;;5083248;27;45484;-83
2021/09/22 06:19:01;;;;;;;;;43.50;33.00;;;;;;;;5053581;28;45454;-83
2021/09/22 06:21:27;;;;;;;;;52.25;35.25;;;;;;;;5078185;27;45579;-83
2021/09/22 06:23:53;;;;;;;;;39.33;32.67;;;;;;;;5076454;27;46337;-84
2021/09/22 06:26:22;;;;;;;;;44.50;35.75;;;;;;;;5071157;27;45765;-84
2021/09/22 06:28:47;;;;;;;;;46.50;36.50;;;;;;;;5057670;28;45375;-84
2021/09/22 06:31:12;;;;;;;;;47.00;35.75;;;;;;;;5077292;27;45458;-84
2021/09/22 06:33:38;;;;;;;;;48.67;36.67;;;;;;;;5078131;27;46285;-82
2021/09/22 06:36:03;;;;;;;;;46.25;32.75;;;;;;;;5069354;27;46444;-83
2021/09/22 06:38:28;;;;;;;;;46.25;35.25;;;;;;;;5067571;28;45456;-82
2021/09/22 06:40:54;;;;;;;;;44.50;34.00;;;;;;;;5083676;27;45431;-82
2021/09/22 06:43:19;;;;;;;;;43.50;34.00;;;;;;;;5057368;28;47203;-85
2021/09/22 06:45:45;;;;;;;;;46.50;34.25;;;;;;;;5078835;27;45465;-84
2021/09/22 06:48:10;;;;;;;;;45.75;33.00;;;;;;;;5081376;28;45465;-85
2021/09/22 06:50:35;;;;;;;;;46.33;33.33;;;;;;;;5054207;28;45762;-82
2021/09/22 06:53:01;;;;;;;;;45.25;34.25;;;;;;;;5077067;27;46333;-82
2021/09/22 06:55:26;;;;;;;;;42.33;32.33;;;;;;;;5073574;27;45544;-82
2021/09/22 06:57:51;;;;;;;;;40.00;33.75;;;;;;;;5061372;28;45356;-81
2021/09/22 07:00:17;;;;;;;;;36.67;33.00;;;;;;;;5072595;27;45295;-81
2021/09/22 07:02:42;;;;;;;;;42.75;33.25;;;;;;;;5075274;28;45354;-81
2021/09/22 07:05:08;;;;;;;;;43.67;32.33;;;;;;;;5083147;27;44787;-81
2021/09/22 07:07:33;;;;;;;;;37.00;30.25;;;;;;;;5076741;27;45599;-81
2021/09/22 07:09:59;;;;;;;;;44.75;33.25;;;;;;;;5071434;27;45251;-81
2021/09/22 07:12:24;;;;;;;;;44.00;34.00;;;;;;;;5084761;27;45383;-81
2021/09/22 07:14:49;;;;;;;;;37.00;31.00;;;;;;;;5076365;27;45229;-81
2021/09/22 07:17:17;;;;;;;;;38.00;30.00;;;;;;;;5058458;28;45283;-81
2021/09/22 07:19:43;;;;;;;;;39.25;31.75;;;;;;;;5077327;27;45508;-81
2021/09/22 07:22:08;;;;;;;;;40.00;30.50;;;;;;;;5062104;28;47472;-81
2021/09/22 07:24:33;;;;;;;;;48.25;33.50;;;;;;;;5077376;27;45527;-81
2021/09/22 07:26:58;;;;;;;;;40.67;35.33;;;;;;;;5068662;27;45472;-81
2021/09/22 07:29:24;;;;;;;;;44.75;33.75;;;;;;;;5076105;28;46550;-81
2021/09/22 07:31:49;;;;;;;;;42.00;34.67;;;;;;;;5075319;27;45383;-81
2021/09/22 07:34:14;;;;;;;;;40.50;33.00;;;;;;;;5081973;27;45494;-81
2021/09/22 07:36:39;;;;;;;;;41.75;33.75;;;;;;;;5062740;28;45446;-82
2021/09/22 07:39:05;;;;;;;;;40.50;32.75;;;;;;;;5074363;28;46503;-81
2021/09/22 07:41:30;;;;;;;;;40.75;33.50;;;;;;;;5065609;28;46163;-81
2021/09/22 07:43:55;;;;;;;;;34.00;32.00;;;;;;;;5072180;27;45950;-82
2021/09/22 07:46:21;;;;;;;;;35.50;29.75;;;;;;;;5082233;27;45371;-82
2021/09/22 07:48:46;;;;;;;;;35.00;27.75;;;;;;;;5054929;27;46710;-81
2021/09/22 07:51:11;;;;;;;;;32.00;28.50;;;;;;;;5082971;27;45856;-81
2021/09/22 07:53:37;;;;;;;;;32.50;30.50;;;;;;;;5071574;27;45612;-82
2021/09/22 07:56:02;;;;;;;;;36.75;30.25;;;;;;;;5078957;27;45445;-82
2021/09/22 07:58:27;;;;;;;;;37.25;29.25;;;;;;;;5074564;28;45395;-81
2021/09/22 08:00:52;;;;;;;;;31.67;28.67;;;;;;;;5078581;27;46316;-82
2021/09/22 08:03:18;;;;;;;;;35.50;26.00;;;;;;;;5071068;28;45447;-82
2021/09/22 08:05:43;;;;;;;;;30.25;27.25;;;;;;;;5065178;28;45975;-82
2021/09/22 08:08:08;;;;;;;;;28.33;25.33;;;;;;;;5074076;27;46413;-82
2021/09/22 08:10:34;;;;;;;;;34.00;26.25;;;;;;;;5084511;27;45893;-82
2021/09/22 08:12:59;;;;;;;;;29.50;25.75;;;;;;;;5084663;27;45448;-83
2021/09/22 08:15:25;;;;;;;;;29.75;25.00;;;;;;;;5084117;27;45356;-82
2021/09/22 08:17:50;;;;;;;;;28.00;25.75;;;;;;;;5072458;27;45600;-83
2021/09/22 08:20:16;;;;;;;;;28.75;25.25;;;;;;;;5070364;28;45347;-83
2021/09/22 08:22:42;;;;;;;;;25.00;22.25;;;;;;;;5073489;27;45366;-83
2021/09/22 08:25:07;;;;;;;;;25.50;21.75;;;;;;;;5078366;27;45347;-83
2021/09/22 08:27:32;;;;;;;;;22.25;20.25;;;;;;;;5078238;27;45485;-83
2021/09/22 08:29:58;;;;;;;;;24.00;19.75;;;;;;;;5062543;28;47265;-83
2021/09/22 08:32:23;;;;;;;;;24.25;23.00;;;;;;;;5071635;28;45256;-83
2021/09/22 08:34:48;;;;;;;;;26.00;22.00;;;;;;;;5061210;28;45511;-83
2021/09/22 08:37:13;;;;;;;;;30.67;24.67;;;;;;;;5056307;28;46256;-83
2021/09/22 08:39:39;;;;;;;;;27.75;26.00;;;;;;;;5069551;27;45798;-83
2021/09/22 08:42:05;;;;;;;;;27.33;23.33;;;;;;;;5078848;27;45583;-83
2021/09/22 08:44:30;;;;;;;;;26.50;23.25;;;;;;;;5068711;27;45430;-82
2021/09/22 08:46:56;;;;;;;;;26.75;22.75;;;;;;;;5094069;27;44745;-82
2021/09/22 08:49:22;;;;;;;;;24.50;22.75;;;;;;;;5099591;27;45019;-82
2021/09/22 08:51:47;;;;;;;;;23.50;22.75;;;;;;;;5073334;27;45421;-82
2021/09/22 08:54:13;;;;;;;;;23.50;21.25;;;;;;;;5070569;27;45548;-83
2021/09/22 08:56:40;;;;;;;;;24.75;21.75;;;;;;;;5078210;27;45485;-82
2021/09/22 08:59:06;;;;;;;;;23.00;21.50;;;;;;;;5073470;27;45588;-82
2021/09/22 09:01:31;;;;;;;;;24.50;19.50;;;;;;;;5066918;28;45553;-80
2021/09/22 09:03:57;;;;;;;;;26.75;24.00;;;;;;;;5077303;28;45355;-79
2021/09/22 09:06:24;;;;;;;;;27.75;24.25;;;;;;;;5066702;28;45414;-80
2021/09/22 09:08:51;;;;;;;;;24.50;21.25;;;;;;;;5058513;28;45460;-82
2021/09/22 09:11:22;;;;;;;;;28.00;25.00;;;;;;;;5057458;28;45864;-82
2021/09/22 09:13:48;;;;;;;;;23.00;20.50;;;;;;;;5077309;28;45491;-81
2021/09/22 09:16:17;;;;;;;;;23.50;21.00;;;;;;;;5052902;28;45466;-80
2021/09/22 09:18:53;;;;;;;;;20.75;20.25;;;;;;;;5073900;28;46118;-82
2021/09/22 09:21:19;;;;;;;;;20.00;19.50;;;;;;;;5067507;28;45429;-82
2021/09/22 09:23:50;;;;;;;;;20.75;18.50;;;;;;;;5066788;28;45433;-82
2021/09/22 09:26:18;;;;;;;;;26.50;22.25;;;;;;;;5078224;28;45294;-82
2021/09/22 09:28:47;;;;;;;;;22.50;19.75;;;;;;;;5076868;28;45525;-82
2021/09/22 09:31:12;;;;;;;;;20.25;20.25;;;;;;;;5071607;28;45343;-80
2021/09/22 09:33:42;;;;;;;;;24.00;23.00;;;;;;;;5068507;28;45521;-80
2021/09/22 09:36:14;;;;;;;;;22.50;20.50;;;;;;;;5066744;28;45515;-83
2021/09/22 09:38:39;;;;;;;;;18.50;17.00;;;;;;;;5065606;28;45340;-81
2021/09/22 09:41:04;;;;;;;;;21.25;18.00;;;;;;;;5077864;28;45475;-80
2021/09/22 09:43:29;;;;;;;;;22.33;19.00;;;;;;;;5070377;28;45350;-83
2021/09/22 09:45:55;;;;;;;;;21.33;17.33;;;;;;;;5048920;28;45689;-82
2021/09/22 09:48:20;;;;;;;;;22.33;17.67;;;;;;;;5072198;28;45545;-83
2021/09/22 09:50:47;;;;;;;;;20.00;17.50;;;;;;;;5066442;28;45319;-80
2021/09/22 09:53:26;;;;;;;;;23.50;21.75;;;;;;;;5065011;28;45437;-82
2021/09/22 09:55:52;;;;;;;;;24.50;18.50;;;;;;;;5045061;28;45502;-82
2021/09/22 09:58:18;;;;;;;;;24.00;20.25;;;;;;;;5066428;28;45350;-82
2021/09/22 10:00:44;;;;;;;;;19.00;17.50;;;;;;;;5065739;28;45449;-82
2021/09/22 10:03:14;;;;;;;;;18.75;16.50;;;;;;;;5074795;28;45386;-82
2021/09/22 10:05:39;;;;;;;;;18.75;17.00;;;;;;;;5067327;28;45399;-82
2021/09/22 10:08:05;;;;;;;;;20.33;17.33;;;;;;;;5068906;28;46421;-82
2021/09/22 10:10:30;;;;;;;;;19.75;18.00;;;;;;;;5067938;28;45181;-82
2021/09/22 10:12:56;;;;;;;;;15.75;15.75;;;;;;;;5075618;28;45884;-82
2021/09/22 10:15:22;;;;;;;;;20.00;18.50;;;;;;;;5073485;28;45308;-83
2021/09/22 10:17:48;;;;;;;;;21.25;20.75;;;;;;;;5069421;28;45335;-82
2021/09/22 10:20:15;;;;;;;;;21.00;16.50;;;;;;;;5070835;28;45411;-82
2021/09/22 10:22:41;;;;;;;;;17.00;15.00;;;;;;;;5056784;28;45473;-82
2021/09/22 10:25:06;;;;;;;;;18.00;16.25;;;;;;;;5054566;28;46436;-82
2021/09/22 10:27:32;;;;;;;;;16.25;13.75;;;;;;;;5052672;28;45516;-82
2021/09/22 10:30:04;;;;;;;;;17.50;14.75;;;;;;;;5056994;28;45329;-82
2021/09/22 10:32:37;;;;;;;;;12.25;12.25;;;;;;;;5056975;28;45596;-83
2021/09/22 10:35:20;;;;;;;;;16.00;13.00;;;;;;;;5065154;27;45224;-81
2021/09/22 10:37:46;;;;;;;;;14.75;12.25;;;;;;;;5053657;28;45578;-83
2021/09/22 10:40:16;;;;;;;;;18.50;17.50;;;;;;;;5047150;28;45849;-82
2021/09/22 10:42:43;;;;;;;;;14.25;12.25;;;;;;;;5052772;28;45549;-81
2021/09/22 10:45:17;;;;;;;;;13.25;13.00;;;;;;;;5057753;28;45348;-82
2021/09/22 10:47:42;;;;;;;;;13.00;12.00;;;;;;;;5045721;27;46044;-82
2021/09/22 10:50:08;;;;;;;;;12.25;10.25;;;;;;;;5052502;28;45490;-82
2021/09/22 10:52:36;;;;;;;;;8.25;6.00;;;;;;;;5046234;28;45318;-81
2021/09/22 10:55:08;;;;;;;;;14.25;13.25;;;;;;;;5040085;28;45787;-82
2021/09/22 10:57:33;;;;;;;;;14.50;11.25;;;;;;;;5055896;28;46443;-83
2021/09/22 11:00:09;;;;;;;;;13.00;13.00;;;;;;;;5056630;28;45385;-81
2021/09/22 11:02:43;;;;;;;;;11.50;11.50;;;;;;;;5054981;28;45319;-81
2021/09/22 11:05:09;;;;;;;;;9.75;9.00;;;;;;;;5047573;28;45450;-81
2021/09/22 11:07:53;;;;;;;;;11.25;10.75;;;;;;;;5055884;28;46334;-79
2021/09/22 11:10:39;;;;;;;;;13.50;12.00;;;;;;;;5059587;28;45955;-80
2021/09/22 11:13:28;;;;;;;;;10.00;10.00;;;;;;;;5060708;28;45487;-80
2021/09/22 11:15:55;;;;;;;;;12.00;10.00;;;;;;;;5046367;28;45605;-79
2021/09/22 11:18:21;;;;;;;;;15.00;12.50;;;;;;;;5061033;28;45806;-80
2021/09/22 11:20:56;;;;;;;;;13.50;11.50;;;;;;;;5053159;28;45422;-81
2021/09/22 11:23:22;;;;;;;;;10.50;10.25;;;;;;;;5058968;28;45357;-83
2021/09/22 11:25:48;;;;;;;;;10.50;10.50;;;;;;;;5064590;28;45483;-81
2021/09/22 11:28:13;;;;;;;;;12.25;9.00;;;;;;;;5064784;28;45629;-81
2021/09/22 11:30:40;;;;;;;;;12.75;12.75;;;;;;;;5063374;28;45279;-82
2021/09/22 11:33:05;;;;;;;;;10.75;10.00;;;;;;;;5065689;28;45437;-80
2021/09/22 11:35:31;;;;;;;;;11.00;9.25;;;;;;;;5065113;28;45391;-81
2021/09/22 11:37:59;;;;;;;;;8.50;8.50;;;;;;;;5064756;28;46061;-81
2021/09/22 11:40:32;;;;;;;;;12.00;9.00;;;;;;;;5064474;28;45489;-80
2021/09/22 11:43:04;;;;;;;;;10.00;9.25;;;;;;;;5065022;28;45371;-81
2021/09/22 11:45:36;;;;;;;;;14.75;10.25;;;;;;;;5063018;28;45675;-80
2021/09/22 11:48:01;;;;;;;;;8.50;8.00;;;;;;;;5063634;28;45407;-80
2021/09/22 11:50:31;;;;;;;;;11.00;9.50;;;;;;;;5062468;28;45319;-80
2021/09/22 11:52:57;;;;;;;;;9.75;6.75;;;;;;;;5062606;28;45483;-81
2021/09/22 11:55:23;;;;;;;;;12.00;9.50;;;;;;;;5061491;28;45441;-80
2021/09/22 11:57:48;;;;;;;;;13.25;7.00;;;;;;;;5062156;28;45342;-80
2021/09/22 12:00:17;;;;;;;;;8.50;8.00;;;;;;;;5061996;28;45818;-80
2021/09/22 12:02:42;;;;;;;;;7.75;7.75;;;;;;;;5060215;28;45515;-80
2021/09/22 12:05:12;;;;;;;;;7.25;5.50;;;;;;;;5058565;28;45351;-79
2021/09/22 12:07:38;;;;;;;;;9.00;9.00;;;;;;;;5058426;28;47787;-80
2021/09/22 12:10:03;;;;;;;;;8.25;8.25;;;;;;;;5058340;28;45429;-79
2021/09/22 12:12:31;;;;;;;;;9.50;8.00;;;;;;;;5056631;28;45609;-79
2021/09/22 12:14:57;;;;;;;;;8.50;8.50;;;;;;;;5059266;28;45417;-79
2021/09/22 12:17:28;;;;;;;;;14.25;9.00;;;;;;;;5059787;28;45322;-79
2021/09/22 12:19:53;;;;;;;;;10.00;7.00;;;;;;;;5059626;28;45306;-78
2021/09/22 12:22:26;;;;;;;;;9.50;8.50;;;;;;;;5078063;27;45465;-78
2021/09/22 12:24:52;;;;;;;;;13.00;7.50;;;;;;;;5081179;28;45146;-78
2021/09/22 12:27:19;;;;;;;;;9.00;8.00;;;;;;;;5062949;28;47156;-79
2021/09/22 12:29:51;;;;;;;;;10.00;7.75;;;;;;;;5083108;28;45421;-78
2021/09/22 12:32:16;;;;;;;;;9.25;9.25;;;;;;;;5080902;28;45426;-78
2021/09/22 12:34:43;;;;;;;;;9.25;9.00;;;;;;;;5082216;28;45208;-79
2021/09/22 12:37:14;;;;;;;;;9.75;9.50;;;;;;;;5081164;28;45399;-78
2021/09/22 12:39:49;;;;;;;;;8.50;6.50;;;;;;;;5081472;28;45464;-79
2021/09/22 12:42:14;;;;;;;;;9.75;7.75;;;;;;;;5081536;28;46494;-79
2021/09/22 12:44:52;;;;;;;;;9.50;7.25;;;;;;;;5080733;28;45146;-78
2021/09/22 12:47:17;;;;;;;;;9.25;8.75;;;;;;;;5080285;28;46446;-77
2021/09/22 12:49:43;;;;;;;;;9.00;8.25;;;;;;;;5061411;28;46363;-77
2021/09/22 12:52:19;;;;;;;;;6.75;6.75;;;;;;;;5079649;28;45528;-75
2021/09/22 12:54:45;;;;;;;;;7.00;7.00;;;;;;;;5077943;28;45465;-77
2021/09/22 12:57:12;;;;;;;;;9.00;8.50;;;;;;;;5061000;28;47160;-77
2021/09/22 12:59:37;;;;;;;;;10.75;8.00;;;;;;;;5059285;28;46461;-79
2021/09/22 13:02:02;;;;;;;;;9.50;8.00;;;;;;;;5080289;28;45461;-78
2021/09/22 13:04:28;;;;;;;;;7.00;7.00;;;;;;;;5062201;28;45320;-77
2021/09/22 13:06:57;;;;;;;;;10.00;8.25;;;;;;;;5080757;28;45906;-78
2021/09/22 13:09:29;;;;;;;;;8.00;7.75;;;;;;;;5081556;28;45375;-78
2021/09/22 13:11:54;;;;;;;;;10.25;7.50;;;;;;;;5077619;28;45431;-76
2021/09/22 13:14:20;;;;;;;;;7.67;6.67;;;;;;;;5062232;28;45397;-77
2021/09/22 13:16:55;;;;;;;;;8.75;8.00;;;;;;;;5080045;28;45457;-77
2021/09/22 13:19:21;;;;;;;;;8.25;8.25;;;;;;;;5078362;28;45438;-76
2021/09/22 13:21:48;;;;;;;;;8.75;7.00;;;;;;;;5080576;28;45284;-77
2021/09/22 13:24:15;;;;;;;;;10.50;8.00;;;;;;;;5060831;28;45310;-78
2021/09/22 13:26:41;;;;;;;;;9.75;8.00;;;;;;;;5062246;28;47560;-78
2021/09/22 13:29:07;;;;;;;;;7.75;7.75;;;;;;;;5080503;28;45515;-78
2021/09/22 13:31:34;;;;;;;;;6.25;6.25;;;;;;;;5080553;28;45442;-79
2021/09/22 13:34:00;;;;;;;;;5.50;5.50;;;;;;;;5079965;28;45532;-76
2021/09/22 13:36:26;;;;;;;;;7.00;7.00;;;;;;;;5079617;28;46288;-79
2021/09/22 13:38:52;;;;;;;;;6.75;6.75;;;;;;;;5061856;28;45450;-80
2021/09/22 13:41:18;;;;;;;;;10.00;8.00;;;;;;;;5061621;28;45258;-78
2021/09/22 13:43:43;;;;;;;;;8.75;8.00;;;;;;;;5058756;28;45618;-79
2021/09/22 13:46:09;;;;;;;;;8.50;7.25;;;;;;;;5079821;28;46321;-79
2021/09/22 13:48:34;;;;;;;;;9.00;7.25;;;;;;;;5079381;28;45299;-79
2021/09/22 13:51:00;;;;;;;;;7.75;6.75;;;;;;;;5079810;28;45473;-78
2021/09/22 13:53:25;;;;;;;;;8.50;8.00;;;;;;;;5075543;28;45406;-79
2021/09/22 13:55:52;;;;;;;;;8.00;8.00;;;;;;;;5088591;27;46870;-79
2021/09/22 13:58:17;;;;;;;;;7.25;7.25;;;;;;;;5060619;28;45535;-81
2021/09/22 14:00:43;;;;;;;;;7.00;7.00;;;;;;;;5078782;28;45444;-78
2021/09/22 14:03:08;;;;;;;;;6.50;6.50;;;;;;;;5082254;28;45454;-79
2021/09/22 14:05:34;;;;;;;;;7.00;7.00;;;;;;;;5064872;28;46982;-78
2021/09/22 14:08:02;;;;;;;;;5.25;5.25;;;;;;;;5084302;28;45462;-79
2021/09/22 14:10:28;;;;;;;;;7.25;7.25;;;;;;;;5079015;28;45200;-78
2021/09/22 14:13:00;;;;;;;;;6.25;6.00;;;;;;;;5061890;28;45178;-79
2021/09/22 14:15:29;;;;;;;;;9.00;7.00;;;;;;;;5080423;28;45551;-78